createdAt,value
2023-01-19T00:00:07.621Z,27.00
2023-01-19T00:00:20.207Z,27.77
2023-01-19T00:00:32.211Z,27.45
2023-01-19T00:00:44.204Z,28.30
2023-01-19T00:00:56.337Z,26.90
2023-01-19T00:01:08.321Z,25.92
2023-01-19T00:01:23.416Z,27.33
2023-01-19T00:01:35.426Z,28.15
2023-01-19T00:01:47.822Z,26.05
2023-01-19T00:01:59.724Z,25.95
2023-01-19T00:02:11.730Z,25.05
2023-01-19T00:02:24.196Z,25.65
2023-01-19T00:02:37.391Z,26.88
2023-01-19T00:02:50.743Z,24.52
2023-01-19T00:03:04.975Z,22.92
2023-01-19T00:03:18.472Z,23.98
2023-01-19T00:03:30.460Z,24.65
2023-01-19T00:03:42.793Z,26.08
2023-01-19T00:03:54.715Z,23.45
2023-01-19T00:04:07.188Z,23.65
2023-01-19T00:04:19.120Z,22.38
2023-01-19T00:04:31.598Z,22.77
2023-01-19T00:04:43.784Z,22.92
2023-01-19T00:04:56.637Z,24.80
2023-01-19T00:05:09.222Z,28.23
2023-01-19T00:05:21.529Z,28.90
2023-01-19T00:05:35.408Z,24.83
2023-01-19T00:05:47.581Z,23.65
2023-01-19T00:06:07.536Z,27.20
2023-01-19T00:06:19.777Z,27.95
2023-01-19T00:06:31.874Z,25.88
2023-01-19T00:06:43.917Z,25.92
2023-01-19T00:06:55.869Z,26.27
2023-01-19T00:07:07.811Z,25.20
2023-01-19T00:07:19.782Z,26.10
2023-01-19T00:07:32.056Z,28.25
2023-01-19T00:07:44.136Z,28.55
2023-01-19T00:07:56.655Z,26.83
2023-01-19T00:08:14.655Z,27.67
2023-01-19T00:08:27.128Z,26.30
2023-01-19T00:08:39.536Z,25.95
2023-01-19T00:08:51.526Z,27.63
2023-01-19T00:09:03.498Z,25.42
2023-01-19T00:09:15.526Z,22.85
2023-01-19T00:09:28.056Z,22.35
2023-01-19T00:09:39.960Z,23.38
2023-01-19T00:09:51.925Z,22.60
2023-01-19T00:10:04.626Z,21.80
2023-01-19T00:10:16.946Z,22.23
2023-01-19T00:10:28.840Z,22.40
2023-01-19T00:10:42.691Z,21.25
2023-01-19T00:10:54.817Z,21.42
2023-01-19T00:11:07.105Z,22.77
2023-01-19T00:11:19.574Z,24.88
2023-01-19T00:11:31.483Z,24.40
2023-01-19T00:11:43.427Z,24.50
2023-01-19T00:11:55.689Z,21.38
2023-01-19T00:12:08.169Z,21.33
2023-01-19T00:12:20.058Z,19.88
2023-01-19T00:12:32.567Z,18.67
2023-01-19T00:12:44.619Z,20.20
2023-01-19T00:12:56.530Z,21.25
2023-01-19T00:13:08.557Z,21.63
2023-01-19T00:13:20.586Z,21.02
2023-01-19T00:13:32.619Z,20.13
2023-01-19T00:13:50.591Z,19.02
2023-01-19T00:14:02.603Z,17.92
2023-01-19T00:14:14.510Z,17.73
2023-01-19T00:14:26.495Z,21.15
2023-01-19T00:14:38.432Z,21.65
2023-01-19T00:14:50.419Z,22.05
2023-01-19T00:15:02.407Z,21.25
2023-01-19T00:15:14.319Z,22.35
2023-01-19T00:15:26.227Z,22.90
2023-01-19T00:15:38.242Z,20.40
2023-01-19T00:15:50.448Z,20.48
2023-01-19T00:16:02.937Z,18.90
2023-01-19T00:16:19.559Z,20.80
2023-01-19T00:16:31.777Z,22.50
2023-01-19T00:16:43.779Z,21.83
2023-01-19T00:16:55.771Z,22.35
2023-01-19T00:17:07.744Z,21.52
2023-01-19T00:17:22.527Z,19.23
2023-01-19T00:17:34.556Z,17.83
2023-01-19T00:17:49.178Z,20.60
2023-01-19T00:18:01.097Z,22.15
2023-01-19T00:18:13.047Z,22.95
2023-01-19T00:18:26.031Z,22.23
2023-01-19T00:18:38.029Z,19.55
2023-01-19T00:18:52.154Z,19.00
2023-01-19T00:19:04.327Z,19.83
2023-01-19T00:19:16.567Z,20.13
2023-01-19T00:19:29.360Z,21.73
2023-01-19T00:19:41.333Z,21.05
2023-01-19T00:19:53.249Z,19.98
2023-01-19T00:20:05.928Z,19.50
2023-01-19T00:20:18.943Z,21.88
2023-01-19T00:20:35.518Z,23.02
2023-01-19T00:20:48.528Z,21.27
2023-01-19T00:21:00.467Z,20.27
2023-01-19T00:21:14.767Z,20.30
2023-01-19T00:21:26.875Z,18.55
2023-01-19T00:21:38.761Z,19.58
2023-01-19T00:21:50.791Z,20.20
2023-01-19T00:22:02.865Z,18.85
2023-01-19T00:22:14.827Z,17.58
2023-01-19T00:22:26.876Z,17.98
2023-01-19T00:22:38.814Z,17.33
2023-01-19T00:22:51.123Z,18.02
2023-01-19T00:23:04.748Z,18.42
2023-01-19T00:23:16.890Z,18.13
2023-01-19T00:23:28.868Z,18.15
2023-01-19T00:23:42.560Z,19.75
2023-01-19T00:23:54.923Z,21.40
2023-01-19T00:24:09.208Z,20.83
2023-01-19T00:24:21.235Z,20.73
2023-01-19T00:24:33.758Z,22.70
2023-01-19T00:24:46.014Z,21.88
2023-01-19T00:24:57.975Z,19.83
2023-01-19T00:25:09.928Z,20.88
2023-01-19T00:25:21.863Z,21.38
2023-01-19T00:25:33.963Z,18.35
2023-01-19T00:25:47.823Z,17.15
2023-01-19T00:25:59.752Z,18.90
2023-01-19T00:26:12.044Z,19.77
2023-01-19T00:26:23.980Z,17.92
2023-01-19T00:26:35.928Z,19.17
2023-01-19T00:26:47.953Z,20.55
2023-01-19T00:27:01.582Z,21.65
2023-01-19T00:27:13.537Z,18.58
2023-01-19T00:27:25.763Z,18.08
2023-01-19T00:27:37.711Z,18.05
2023-01-19T00:27:50.561Z,16.38
2023-01-19T00:28:02.596Z,15.52
2023-01-19T00:28:19.412Z,17.50
2023-01-19T00:28:31.612Z,18.92
2023-01-19T00:28:44.913Z,18.38
2023-01-19T00:28:56.922Z,17.08
2023-01-19T00:29:11.414Z,17.65
2023-01-19T00:29:24.091Z,17.50
2023-01-19T00:29:36.601Z,18.33
2023-01-19T00:29:50.989Z,18.60
2023-01-19T00:30:03.122Z,15.82
2023-01-19T00:30:16.183Z,14.75
2023-01-19T00:30:28.444Z,17.77
2023-01-19T00:30:41.320Z,19.83
2023-01-19T00:30:53.252Z,19.48
2023-01-19T00:31:05.295Z,19.83
2023-01-19T00:31:20.445Z,19.58
2023-01-19T00:31:33.910Z,18.92
2023-01-19T00:31:45.967Z,18.13
2023-01-19T00:31:57.913Z,17.35
2023-01-19T00:32:10.101Z,17.58
2023-01-19T00:32:22.040Z,17.20
2023-01-19T00:32:33.950Z,16.55
2023-01-19T00:32:45.913Z,20.38
2023-01-19T00:32:58.494Z,20.38
2023-01-19T00:33:14.513Z,19.85
2023-01-19T00:33:26.655Z,18.55
2023-01-19T00:33:38.640Z,18.60
2023-01-19T00:33:52.472Z,18.35
2023-01-19T00:34:05.603Z,16.88
2023-01-19T00:34:17.842Z,17.00
2023-01-19T00:34:39.472Z,18.08
2023-01-19T00:34:52.450Z,19.33
2023-01-19T00:35:04.816Z,21.65
2023-01-19T00:35:17.556Z,20.60
2023-01-19T00:35:29.775Z,19.70
2023-01-19T00:35:42.995Z,20.73
2023-01-19T00:35:55.009Z,21.45
2023-01-19T00:36:07.394Z,20.02
2023-01-19T00:36:19.603Z,21.27
2023-01-19T00:36:31.764Z,23.40
2023-01-19T00:36:43.746Z,22.80
2023-01-19T00:36:55.649Z,20.20
2023-01-19T00:37:07.611Z,21.52
2023-01-19T00:37:19.631Z,21.70
2023-01-19T00:37:31.562Z,21.98
2023-01-19T00:37:46.011Z,22.80
2023-01-19T00:37:59.058Z,23.77
2023-01-19T00:38:12.196Z,22.77
2023-01-19T00:38:24.331Z,22.65
2023-01-19T00:38:36.380Z,21.80
2023-01-19T00:38:48.694Z,20.42
2023-01-19T00:39:01.038Z,19.70
2023-01-19T00:39:12.993Z,17.40
2023-01-19T00:39:24.901Z,18.35
2023-01-19T00:39:36.849Z,21.20
2023-01-19T00:39:48.812Z,24.50
2023-01-19T00:40:00.812Z,24.23
2023-01-19T00:40:13.992Z,22.73
2023-01-19T00:40:26.027Z,19.38
2023-01-19T00:40:38.063Z,19.67
2023-01-19T00:40:50.045Z,19.85
2023-01-19T00:41:01.937Z,22.05
2023-01-19T00:41:14.051Z,21.83
2023-01-19T00:41:45.877Z,19.63
2023-01-19T00:42:16.679Z,21.40
2023-01-19T00:42:40.859Z,21.75
2023-01-19T00:42:52.862Z,21.65
2023-01-19T00:43:05.127Z,21.50
2023-01-19T00:43:17.446Z,22.10
2023-01-19T00:43:29.382Z,22.40
2023-01-19T00:43:44.117Z,21.98
2023-01-19T00:43:56.161Z,20.23
2023-01-19T00:44:08.491Z,19.23
2023-01-19T00:44:20.415Z,18.13
2023-01-19T00:44:32.317Z,18.77
2023-01-19T00:44:44.318Z,17.63
2023-01-19T00:44:57.037Z,18.60
2023-01-19T00:45:11.300Z,19.58
2023-01-19T00:45:27.685Z,19.55
2023-01-19T00:45:40.046Z,19.95
2023-01-19T00:45:54.900Z,20.65
2023-01-19T00:46:06.898Z,19.10
2023-01-19T00:46:18.866Z,17.05
2023-01-19T00:46:30.764Z,16.73
2023-01-19T00:46:42.725Z,17.60
2023-01-19T00:46:54.661Z,19.05
2023-01-19T00:47:06.889Z,18.58
2023-01-19T00:47:18.842Z,18.02
2023-01-19T00:47:32.166Z,16.90
2023-01-19T00:47:44.192Z,17.75
2023-01-19T00:47:58.944Z,19.08
2023-01-19T00:48:11.567Z,19.13
2023-01-19T00:48:23.781Z,17.63
2023-01-19T00:48:36.267Z,17.70
2023-01-19T00:48:48.289Z,17.80
2023-01-19T00:49:00.742Z,17.85
2023-01-19T00:49:12.662Z,17.33
2023-01-19T00:49:25.219Z,16.92
2023-01-19T00:49:37.171Z,16.85
2023-01-19T00:49:51.430Z,18.00
2023-01-19T00:50:03.583Z,19.08
2023-01-19T00:50:16.976Z,19.05
2023-01-19T00:50:31.571Z,18.13
2023-01-19T00:50:43.465Z,18.52
2023-01-19T00:50:55.398Z,17.75
2023-01-19T00:51:07.428Z,17.15
2023-01-19T00:51:19.414Z,15.82
2023-01-19T00:51:32.217Z,16.25
2023-01-19T00:51:44.258Z,16.45
2023-01-19T00:51:56.147Z,17.05
2023-01-19T00:52:08.114Z,16.65
2023-01-19T00:52:20.081Z,15.35
2023-01-19T00:52:31.992Z,16.17
2023-01-19T00:52:48.448Z,16.13
2023-01-19T00:53:01.946Z,15.25
2023-01-19T00:53:14.139Z,15.88
2023-01-19T00:53:26.444Z,17.35
2023-01-19T00:53:38.636Z,18.92
2023-01-19T00:53:50.539Z,20.30
2023-01-19T00:54:04.883Z,21.13
2023-01-19T00:54:17.561Z,20.02
2023-01-19T00:54:29.506Z,18.65
2023-01-19T00:54:41.616Z,17.88
2023-01-19T00:54:53.551Z,17.52
2023-01-19T00:55:07.567Z,19.13
2023-01-19T00:55:19.727Z,19.33
2023-01-19T00:55:32.678Z,16.80
2023-01-19T00:55:44.641Z,19.63
2023-01-19T00:55:56.542Z,20.23
2023-01-19T00:56:08.467Z,18.88
2023-01-19T00:56:20.439Z,16.63
2023-01-19T00:56:32.389Z,17.40
2023-01-19T00:56:44.307Z,19.02
2023-01-19T00:56:56.282Z,17.88
2023-01-19T00:57:09.046Z,16.55
2023-01-19T00:57:20.962Z,16.23
2023-01-19T00:57:32.913Z,16.35
2023-01-19T00:57:44.929Z,15.82
2023-01-19T00:57:57.541Z,16.60
2023-01-19T00:58:09.587Z,17.88
2023-01-19T00:58:22.774Z,18.90
2023-01-19T00:58:34.754Z,18.88
2023-01-19T00:58:46.716Z,17.73
2023-01-19T00:58:59.333Z,16.45
2023-01-19T00:59:11.345Z,17.98
2023-01-19T00:59:23.496Z,17.65
2023-01-19T00:59:35.583Z,16.98
2023-01-19T00:59:47.807Z,15.82
2023-01-19T00:59:59.869Z,16.40
2023-01-19T01:00:14.686Z,17.63
2023-01-19T01:00:26.869Z,17.13
2023-01-19T01:00:38.783Z,17.27
2023-01-19T01:00:53.984Z,17.45
2023-01-19T01:01:06.197Z,18.85
2023-01-19T01:01:18.712Z,16.92
2023-01-19T01:01:46.103Z,16.40
2023-01-19T01:01:58.682Z,15.95
2023-01-19T01:02:11.646Z,15.80
2023-01-19T01:02:23.943Z,15.60
2023-01-19T01:02:36.720Z,14.63
2023-01-19T01:02:51.359Z,14.77
2023-01-19T01:03:03.787Z,15.55
2023-01-19T01:03:16.037Z,16.45
2023-01-19T01:03:28.222Z,16.63
2023-01-19T01:03:40.436Z,16.98
2023-01-19T01:03:54.498Z,16.42
2023-01-19T01:04:06.734Z,18.05
2023-01-19T01:04:19.069Z,19.33
2023-01-19T01:04:31.523Z,16.50
2023-01-19T01:04:43.957Z,15.65
2023-01-19T01:04:56.699Z,15.85
2023-01-19T01:05:09.619Z,16.23
2023-01-19T01:05:21.760Z,17.33
2023-01-19T01:05:36.236Z,17.13
2023-01-19T01:05:49.159Z,17.63
2023-01-19T01:06:01.166Z,19.67
2023-01-19T01:06:13.141Z,19.92
2023-01-19T01:06:25.277Z,20.45
2023-01-19T01:06:37.170Z,18.73
2023-01-19T01:06:49.150Z,18.25
2023-01-19T01:07:01.119Z,17.73
2023-01-19T01:07:13.069Z,17.08
2023-01-19T01:07:24.957Z,16.92
2023-01-19T01:07:41.678Z,19.63
2023-01-19T01:07:53.765Z,20.95
2023-01-19T01:08:05.731Z,18.75
2023-01-19T01:08:17.695Z,17.63
2023-01-19T01:08:30.484Z,17.25
2023-01-19T01:08:42.435Z,16.58
2023-01-19T01:08:54.423Z,17.10
2023-01-19T01:09:11.766Z,16.67
2023-01-19T01:09:24.216Z,17.98
2023-01-19T01:09:36.115Z,18.73
2023-01-19T01:09:48.066Z,17.50
2023-01-19T01:09:59.966Z,16.23
2023-01-19T01:10:16.039Z,15.95
2023-01-19T01:10:29.307Z,17.05
2023-01-19T01:10:41.360Z,17.83
2023-01-19T01:10:54.456Z,17.95
2023-01-19T01:11:08.604Z,16.73
2023-01-19T01:11:20.505Z,17.08
2023-01-19T01:11:32.413Z,16.92
2023-01-19T01:11:44.498Z,17.13
2023-01-19T01:11:57.180Z,18.38
2023-01-19T01:12:09.080Z,18.90
2023-01-19T01:12:21.003Z,18.60
2023-01-19T01:12:32.921Z,16.50
2023-01-19T01:12:57.498Z,16.65
2023-01-19T01:13:20.115Z,17.33
2023-01-19T01:13:33.178Z,15.77
2023-01-19T01:13:45.437Z,14.73
2023-01-19T01:13:57.676Z,15.27
2023-01-19T01:14:12.665Z,16.65
2023-01-19T01:14:24.704Z,16.45
2023-01-19T01:14:36.680Z,16.35
2023-01-19T01:14:48.982Z,15.80
2023-01-19T01:15:01.620Z,16.60
2023-01-19T01:15:14.527Z,16.65
2023-01-19T01:15:28.214Z,15.93
2023-01-19T01:15:40.219Z,15.15
2023-01-19T01:15:53.691Z,16.00
2023-01-19T01:16:07.893Z,17.08
2023-01-19T01:16:20.210Z,17.63
2023-01-19T01:16:32.174Z,17.83
2023-01-19T01:16:44.257Z,19.92
2023-01-19T01:16:56.413Z,19.50
2023-01-19T01:17:11.615Z,17.90
2023-01-19T01:17:25.122Z,16.52
2023-01-19T01:17:37.788Z,15.93
2023-01-19T01:17:49.761Z,15.43
2023-01-19T01:18:01.748Z,15.57
2023-01-19T01:18:13.629Z,17.23
2023-01-19T01:18:26.274Z,18.17
2023-01-19T01:18:38.246Z,17.45
2023-01-19T01:18:50.266Z,16.83
2023-01-19T01:19:02.169Z,15.75
2023-01-19T01:19:14.148Z,16.08
2023-01-19T01:19:26.187Z,17.45
2023-01-19T01:19:38.503Z,17.75
2023-01-19T01:19:51.826Z,17.73
2023-01-19T01:20:04.880Z,16.25
2023-01-19T01:20:19.056Z,16.25
2023-01-19T01:20:33.572Z,17.85
2023-01-19T01:20:45.604Z,18.42
2023-01-19T01:21:10.834Z,16.75
2023-01-19T01:21:23.655Z,16.73
2023-01-19T01:21:35.679Z,17.55
2023-01-19T01:21:47.709Z,19.20
2023-01-19T01:21:59.709Z,19.38
2023-01-19T01:22:11.750Z,19.30
2023-01-19T01:22:23.762Z,17.15
2023-01-19T01:22:35.704Z,15.18
2023-01-19T01:22:50.220Z,15.73
2023-01-19T01:23:02.901Z,17.38
2023-01-19T01:23:15.156Z,17.63
2023-01-19T01:23:27.150Z,17.70
2023-01-19T01:23:39.207Z,17.70
2023-01-19T01:23:51.261Z,17.58
2023-01-19T01:24:03.592Z,16.65
2023-01-19T01:24:16.214Z,16.95
2023-01-19T01:24:28.115Z,16.20
2023-01-19T01:24:40.053Z,14.73
2023-01-19T01:24:51.999Z,15.57
2023-01-19T01:25:04.055Z,17.15
2023-01-19T01:25:18.230Z,17.83
2023-01-19T01:25:31.110Z,17.00
2023-01-19T01:25:43.386Z,15.63
2023-01-19T01:25:55.285Z,14.52
2023-01-19T01:26:07.266Z,13.82
2023-01-19T01:26:19.281Z,15.93
2023-01-19T01:26:31.268Z,16.33
2023-01-19T01:26:43.180Z,16.33
2023-01-19T01:26:55.262Z,16.33
2023-01-19T01:27:07.353Z,16.13
2023-01-19T01:27:19.503Z,16.70
2023-01-19T01:27:32.458Z,15.90
2023-01-19T01:27:44.935Z,16.75
2023-01-19T01:27:57.012Z,16.92
2023-01-19T01:28:10.131Z,16.95
2023-01-19T01:28:22.335Z,15.15
2023-01-19T01:28:34.330Z,14.90
2023-01-19T01:28:46.281Z,15.10
2023-01-19T01:28:58.285Z,15.32
2023-01-19T01:29:10.183Z,16.40
2023-01-19T01:29:23.548Z,16.23
2023-01-19T01:29:35.602Z,15.63
2023-01-19T01:29:48.022Z,14.82
2023-01-19T01:29:59.979Z,17.20
2023-01-19T01:30:13.754Z,15.70
2023-01-19T01:30:25.786Z,14.32
2023-01-19T01:30:41.254Z,15.13
2023-01-19T01:30:54.248Z,15.40
2023-01-19T01:31:06.210Z,15.95
2023-01-19T01:31:18.208Z,15.50
2023-01-19T01:31:31.543Z,14.00
2023-01-19T01:31:43.636Z,13.27
2023-01-19T01:31:55.623Z,14.45
2023-01-19T01:32:08.191Z,15.40
2023-01-19T01:32:22.526Z,15.23
2023-01-19T01:32:34.457Z,15.00
2023-01-19T01:32:47.171Z,16.20
2023-01-19T01:32:59.403Z,16.85
2023-01-19T01:33:13.035Z,14.85
2023-01-19T01:33:41.031Z,15.13
2023-01-19T01:33:53.835Z,16.42
2023-01-19T01:34:06.034Z,15.20
2023-01-19T01:34:18.239Z,16.00
2023-01-19T01:34:30.621Z,16.63
2023-01-19T01:34:45.513Z,16.23
2023-01-19T01:34:57.630Z,14.55
2023-01-19T01:35:10.936Z,14.90
2023-01-19T01:35:25.970Z,15.60
2023-01-19T01:35:40.597Z,16.25
2023-01-19T01:35:54.781Z,16.27
2023-01-19T01:36:07.339Z,16.23
2023-01-19T01:36:19.320Z,16.52
2023-01-19T01:36:33.485Z,15.88
2023-01-19T01:36:45.464Z,16.00
2023-01-19T01:36:57.364Z,15.27
2023-01-19T01:37:09.328Z,15.18
2023-01-19T01:37:21.242Z,14.05
2023-01-19T01:37:33.501Z,15.27
2023-01-19T01:37:45.424Z,15.57
2023-01-19T01:38:01.092Z,15.25
2023-01-19T01:38:13.069Z,14.73
2023-01-19T01:38:24.988Z,14.48
2023-01-19T01:38:38.037Z,15.00
2023-01-19T01:38:50.955Z,14.50
2023-01-19T01:39:04.339Z,14.45
2023-01-19T01:39:16.361Z,16.40
2023-01-19T01:39:28.389Z,16.58
2023-01-19T01:39:40.381Z,17.08
2023-01-19T01:39:52.389Z,15.73
2023-01-19T01:40:05.637Z,15.85
2023-01-19T01:40:19.049Z,15.35
2023-01-19T01:40:31.151Z,15.75
2023-01-19T01:40:43.644Z,17.73
2023-01-19T01:40:55.530Z,18.33
2023-01-19T01:41:07.847Z,18.13
2023-01-19T01:41:21.856Z,16.92
2023-01-19T01:41:37.424Z,16.23
2023-01-19T01:41:52.472Z,15.50
2023-01-19T01:42:19.264Z,16.55
2023-01-19T01:42:34.601Z,17.13
2023-01-19T01:42:46.626Z,14.55
2023-01-19T01:42:59.929Z,15.57
2023-01-19T01:43:17.352Z,17.85
2023-01-19T01:43:56.514Z,16.65
2023-01-19T01:44:49.969Z,15.88
2023-01-19T01:45:07.504Z,16.55
2023-01-19T01:45:31.991Z,15.25
2023-01-19T01:45:44.681Z,16.35
2023-01-19T01:45:56.627Z,16.95
2023-01-19T01:46:08.593Z,18.42
2023-01-19T01:46:20.790Z,18.05
2023-01-19T01:46:33.053Z,15.65
2023-01-19T01:46:44.977Z,16.05
2023-01-19T01:46:57.076Z,15.98
2023-01-19T01:47:09.055Z,14.63
2023-01-19T01:47:36.758Z,15.43
2023-01-19T01:47:53.586Z,16.10
2023-01-19T01:48:11.511Z,16.48
2023-01-19T01:48:26.998Z,15.90
2023-01-19T01:48:43.435Z,15.77
2023-01-19T01:48:57.901Z,15.82
2023-01-19T01:49:16.745Z,15.85
2023-01-19T01:49:30.131Z,15.38
2023-01-19T01:49:43.527Z,19.15
2023-01-19T01:50:07.919Z,19.50
2023-01-19T01:50:25.030Z,16.25
2023-01-19T01:51:08.747Z,17.55
2023-01-19T01:51:32.806Z,14.43
2023-01-19T01:51:50.838Z,14.07
2023-01-19T01:52:04.512Z,17.05
2023-01-19T01:52:17.844Z,17.02
2023-01-19T01:52:34.307Z,16.83
2023-01-19T01:53:14.053Z,15.23
2023-01-19T01:53:28.475Z,15.30
2023-01-19T01:53:41.743Z,16.25
2023-01-19T01:54:20.512Z,16.75
2023-01-19T01:54:33.611Z,15.25
2023-01-19T01:54:46.452Z,15.65
2023-01-19T01:54:59.215Z,15.93
2023-01-19T01:55:13.064Z,19.08
2023-01-19T01:55:27.617Z,20.30
2023-01-19T01:55:49.197Z,18.08
2023-01-19T01:56:05.349Z,16.27
2023-01-19T01:56:22.374Z,15.60
2023-01-19T01:56:37.484Z,17.15
2023-01-19T01:56:52.437Z,18.30
2023-01-19T01:57:12.284Z,19.40
2023-01-19T01:57:27.860Z,22.13
2023-01-19T01:57:46.422Z,19.83
2023-01-19T01:58:04.118Z,19.10
2023-01-19T01:58:17.424Z,21.05
2023-01-19T01:58:31.817Z,20.95
2023-01-19T01:58:44.238Z,20.20
2023-01-19T01:58:57.388Z,19.83
2023-01-19T01:59:25.732Z,18.77
2023-01-19T01:59:45.525Z,22.67
2023-01-19T01:59:58.656Z,19.83
2023-01-19T02:00:11.263Z,19.92
2023-01-19T02:00:24.982Z,19.20
2023-01-19T02:00:57.334Z,17.33
2023-01-19T02:01:29.316Z,15.77
2023-01-19T02:02:00.364Z,17.38
2023-01-19T02:02:38.195Z,17.10
2023-01-19T02:02:51.575Z,15.48
2023-01-19T02:03:04.039Z,14.02
2023-01-19T02:03:16.284Z,13.27
2023-01-19T02:03:28.612Z,14.70
2023-01-19T02:03:40.977Z,15.90
2023-01-19T02:03:54.340Z,17.00
2023-01-19T02:04:07.757Z,17.48
2023-01-19T02:04:20.792Z,17.00
2023-01-19T02:04:32.824Z,17.15
2023-01-19T02:04:50.888Z,17.42
2023-01-19T02:05:07.869Z,16.65
2023-01-19T02:05:26.840Z,16.77
2023-01-19T02:05:38.785Z,17.85
2023-01-19T02:05:52.165Z,17.73
2023-01-19T02:06:07.867Z,17.23
2023-01-19T02:06:21.732Z,16.75
2023-01-19T02:06:34.834Z,16.63
2023-01-19T02:07:06.613Z,16.50
2023-01-19T02:07:54.749Z,17.67
2023-01-19T02:08:35.358Z,18.23
2023-01-19T02:09:17.710Z,16.23
2023-01-19T02:09:52.594Z,18.48
2023-01-19T02:10:23.898Z,17.50
2023-01-19T02:10:55.345Z,17.95
2023-01-19T02:11:26.826Z,16.17
2023-01-19T02:11:58.201Z,18.60
2023-01-19T02:12:29.264Z,19.33
2023-01-19T02:13:00.548Z,20.65
2023-01-19T02:13:22.954Z,18.73
2023-01-19T02:13:38.905Z,18.63
2023-01-19T02:13:51.139Z,19.10
2023-01-19T02:14:05.965Z,19.00
2023-01-19T02:14:18.970Z,18.70
2023-01-19T02:14:30.946Z,17.27
2023-01-19T02:14:42.888Z,18.27
2023-01-19T02:14:55.467Z,19.15
2023-01-19T02:15:18.447Z,18.80
2023-01-19T02:15:30.424Z,17.15
2023-01-19T02:15:42.392Z,18.35
2023-01-19T02:15:57.788Z,20.40
2023-01-19T02:16:11.295Z,19.50
2023-01-19T02:16:23.487Z,19.42
2023-01-19T02:16:37.425Z,19.30
2023-01-19T02:16:49.577Z,18.00
2023-01-19T02:17:01.736Z,18.63
2023-01-19T02:17:14.616Z,19.00
2023-01-19T02:17:27.051Z,18.73
2023-01-19T02:17:39.204Z,18.13
2023-01-19T02:17:51.204Z,17.88
2023-01-19T02:18:04.134Z,16.80
2023-01-19T02:18:16.572Z,16.77
2023-01-19T02:18:30.201Z,17.45
2023-01-19T02:18:43.151Z,18.10
2023-01-19T02:18:55.102Z,18.15
2023-01-19T02:19:12.476Z,18.42
2023-01-19T02:19:31.115Z,17.85
2023-01-19T02:19:43.755Z,19.45
2023-01-19T02:19:56.132Z,20.05
2023-01-19T02:20:10.640Z,21.25
2023-01-19T02:20:27.664Z,20.73
2023-01-19T02:20:43.048Z,18.08
2023-01-19T02:21:12.417Z,19.35
2023-01-19T02:22:04.195Z,22.83
2023-01-19T02:22:25.011Z,19.10
2023-01-19T02:22:45.366Z,17.27
2023-01-19T02:23:03.727Z,18.63
2023-01-19T02:23:23.332Z,18.33
2023-01-19T02:23:44.926Z,18.27
2023-01-19T02:23:58.800Z,16.98
2023-01-19T02:24:10.885Z,19.15
2023-01-19T02:24:23.307Z,19.05
2023-01-19T02:24:35.921Z,18.98
2023-01-19T02:24:49.740Z,18.17
2023-01-19T02:25:04.694Z,17.20
2023-01-19T02:25:19.286Z,16.05
2023-01-19T02:25:31.914Z,17.17
2023-01-19T02:25:44.217Z,18.52
2023-01-19T02:25:56.326Z,18.60
2023-01-19T02:26:10.599Z,17.10
2023-01-19T02:26:35.655Z,15.60
2023-01-19T02:26:48.862Z,13.88
2023-01-19T02:27:01.549Z,14.63
2023-01-19T02:27:13.553Z,14.85
2023-01-19T02:27:25.764Z,14.40
2023-01-19T02:27:37.785Z,13.68
2023-01-19T02:27:50.644Z,12.88
2023-01-19T02:28:03.371Z,13.70
2023-01-19T02:28:15.541Z,14.48
2023-01-19T02:28:28.260Z,14.98
2023-01-19T02:28:44.715Z,15.77
2023-01-19T02:28:59.144Z,16.13
2023-01-19T02:29:18.075Z,14.65
2023-01-19T02:29:31.440Z,13.23
2023-01-19T02:29:43.553Z,14.30
2023-01-19T02:29:55.558Z,15.48
2023-01-19T02:30:09.919Z,16.27
2023-01-19T02:30:22.060Z,17.08
2023-01-19T02:30:37.219Z,15.90
2023-01-19T02:30:49.242Z,15.32
2023-01-19T02:31:01.248Z,16.50
2023-01-19T02:31:15.009Z,15.63
2023-01-19T02:31:29.815Z,13.30
2023-01-19T02:31:48.361Z,13.85
2023-01-19T02:32:02.254Z,20.95
2023-01-19T02:32:14.376Z,20.38
2023-01-19T02:32:26.424Z,18.00
2023-01-19T02:32:38.520Z,15.10
2023-01-19T02:32:50.514Z,15.13
2023-01-19T02:33:02.838Z,14.77
2023-01-19T02:33:15.094Z,15.25
2023-01-19T02:33:27.225Z,16.67
2023-01-19T02:33:39.222Z,16.27
2023-01-19T02:33:52.036Z,14.73
2023-01-19T02:34:05.889Z,15.85
2023-01-19T02:34:20.625Z,18.55
2023-01-19T02:34:33.063Z,17.30
2023-01-19T02:34:44.993Z,16.02
2023-01-19T02:34:57.271Z,15.82
2023-01-19T02:35:10.436Z,14.98
2023-01-19T02:35:24.500Z,14.32
2023-01-19T02:35:39.620Z,16.05
2023-01-19T02:35:53.842Z,16.80
2023-01-19T02:36:08.119Z,16.65
2023-01-19T02:36:25.862Z,15.13
2023-01-19T02:36:43.191Z,14.48
2023-01-19T02:37:17.621Z,14.52
2023-01-19T02:37:34.621Z,13.85
2023-01-19T02:37:47.535Z,14.88
2023-01-19T02:38:01.507Z,16.25
2023-01-19T02:38:16.528Z,15.65
2023-01-19T02:38:29.083Z,14.45
2023-01-19T02:38:42.636Z,13.95
2023-01-19T02:39:00.134Z,12.25
2023-01-19T02:39:14.456Z,12.30
2023-01-19T02:39:34.706Z,13.75
2023-01-19T02:39:52.376Z,13.63
2023-01-19T02:40:08.323Z,14.50
2023-01-19T02:40:22.046Z,14.10
2023-01-19T02:40:34.644Z,12.43
2023-01-19T02:40:48.561Z,13.80
2023-01-19T02:41:02.649Z,14.95
2023-01-19T02:41:20.469Z,14.57
2023-01-19T02:41:43.182Z,15.75
2023-01-19T02:41:59.629Z,15.30
2023-01-19T02:42:21.221Z,12.70
2023-01-19T02:42:42.814Z,14.40
2023-01-19T02:42:59.025Z,14.90
2023-01-19T02:43:11.309Z,13.73
2023-01-19T02:43:24.883Z,13.60
2023-01-19T02:43:41.112Z,14.45
2023-01-19T02:43:54.156Z,15.50
2023-01-19T02:44:09.562Z,15.70
2023-01-19T02:44:23.399Z,15.00
2023-01-19T02:44:38.859Z,14.50
2023-01-19T02:44:53.402Z,14.98
2023-01-19T02:45:06.932Z,16.20
2023-01-19T02:45:22.736Z,16.65
2023-01-19T02:45:37.644Z,16.35
2023-01-19T02:45:50.189Z,17.05
2023-01-19T02:46:03.356Z,16.67
2023-01-19T02:46:16.955Z,17.38
2023-01-19T02:46:28.890Z,18.13
2023-01-19T02:46:41.973Z,17.90
2023-01-19T02:46:55.398Z,16.10
2023-01-19T02:47:07.674Z,16.80
2023-01-19T02:47:20.878Z,18.30
2023-01-19T02:47:44.446Z,17.13
2023-01-19T02:47:57.107Z,15.80
2023-01-19T02:48:09.194Z,16.83
2023-01-19T02:48:21.492Z,17.33
2023-01-19T02:48:36.011Z,16.38
2023-01-19T02:48:49.208Z,14.88
2023-01-19T02:49:01.524Z,14.93
2023-01-19T02:49:13.650Z,15.43
2023-01-19T02:49:29.453Z,16.80
2023-01-19T02:49:41.495Z,18.00
2023-01-19T02:49:57.389Z,17.73
2023-01-19T02:50:50.522Z,15.98
2023-01-19T02:51:11.950Z,14.63
2023-01-19T02:51:24.954Z,16.38
2023-01-19T02:51:37.067Z,17.98
2023-01-19T02:51:49.710Z,18.10
2023-01-19T02:52:01.744Z,16.77
2023-01-19T02:52:18.047Z,16.52
2023-01-19T02:52:30.795Z,16.38
2023-01-19T02:52:42.834Z,17.00
2023-01-19T02:53:07.079Z,16.77
2023-01-19T02:53:38.409Z,15.80
2023-01-19T02:54:12.241Z,17.52
2023-01-19T02:54:49.481Z,15.32
2023-01-19T02:55:16.604Z,16.40
2023-01-19T02:55:31.127Z,16.45
2023-01-19T02:55:49.757Z,16.65
2023-01-19T02:56:24.822Z,17.13
2023-01-19T02:57:01.711Z,16.55
2023-01-19T02:57:31.772Z,15.60
2023-01-19T02:58:37.724Z,15.80
2023-01-19T02:58:58.523Z,17.63
2023-01-19T02:59:28.451Z,16.80
2023-01-19T03:00:01.437Z,14.10
2023-01-19T03:00:28.446Z,14.73
2023-01-19T03:00:52.454Z,15.32
2023-01-19T03:01:25.192Z,15.93
2023-01-19T03:01:56.340Z,16.25
2023-01-19T03:02:39.498Z,17.77
2023-01-19T03:03:20.005Z,17.10
2023-01-19T03:04:22.890Z,14.95
2023-01-19T03:05:05.164Z,17.63
2023-01-19T03:05:35.873Z,15.00
2023-01-19T03:06:02.830Z,17.02
2023-01-19T03:06:32.501Z,15.43
2023-01-19T03:06:57.750Z,16.25
2023-01-19T03:07:51.910Z,15.05
2023-01-19T03:08:19.972Z,15.38
2023-01-19T03:08:48.355Z,14.32
2023-01-19T03:09:13.008Z,15.20
2023-01-19T03:09:29.827Z,13.25
2023-01-19T03:09:52.568Z,15.07
2023-01-19T03:10:43.047Z,16.38
2023-01-19T03:11:08.032Z,14.32
2023-01-19T03:11:20.643Z,16.50
2023-01-19T03:11:41.596Z,15.63
2023-01-19T03:12:04.930Z,14.63
2023-01-19T03:13:05.033Z,14.77
2023-01-19T03:13:29.892Z,13.82
2023-01-19T03:13:50.309Z,15.80
2023-01-19T03:14:08.941Z,14.55
2023-01-19T03:14:25.146Z,14.30
2023-01-19T03:14:45.015Z,13.75
2023-01-19T03:15:02.248Z,14.73
2023-01-19T03:15:22.220Z,15.23
2023-01-19T03:16:03.322Z,17.25
2023-01-19T03:16:23.370Z,15.20